sensor_id;sensor_type;location;lat;lon;timestamp;temperature;humidity
4757;DHT22;2392;52.578;13.426;2023-03-26T00:00:44;8.60;99.90
4757;DHT22;2392;52.578;13.426;2023-03-26T00:03:13;8.70;99.90
4757;DHT22;2392;52.578;13.426;2023-03-26T00:05:43;8.70;99.90
4757;DHT22;2392;52.578;13.426;2023-03-26T00:08:13;8.70;99.90
4757;DHT22;2392;52.578;13.426;2023-03-26T00:10:41;8.70;99.90
4757;DHT22;2392;52.578;13.426;2023-03-26T00:13:09;8.70;99.90
4757;DHT22;2392;52.578;13.426;2023-03-26T00:15:36;8.70;99.90
4757;DHT22;2392;52.578;13.426;2023-03-26T00:18:05;8.70;99.90
4757;DHT22;2392;52.578;13.426;2023-03-26T00:20:33;8.70;99.90
4757;DHT22;2392;52.578;13.426;2023-03-26T00:23:02;8.60;99.90
4757;DHT22;2392;52.578;13.426;2023-03-26T00:25:29;8.60;99.90
4757;DHT22;2392;52.578;13.426;2023-03-26T00:27:56;8.60;99.90
4757;DHT22;2392;52.578;13.426;2023-03-26T00:30:23;8.60;99.90
4757;DHT22;2392;52.578;13.426;2023-03-26T00:32:51;8.60;99.90
4757;DHT22;2392;52.578;13.426;2023-03-26T00:35:18;8.60;99.90
4757;DHT22;2392;52.578;13.426;2023-03-26T00:37:45;8.60;99.90
4757;DHT22;2392;52.578;13.426;2023-03-26T00:40:13;8.60;99.90
4757;DHT22;2392;52.578;13.426;2023-03-26T00:42:41;8.60;99.90
4757;DHT22;2392;52.578;13.426;2023-03-26T00:45:09;8.60;99.90
4757;DHT22;2392;52.578;13.426;2023-03-26T00:47:36;8.60;99.90
4757;DHT22;2392;52.578;13.426;2023-03-26T00:50:06;8.60;99.90
4757;DHT22;2392;52.578;13.426;2023-03-26T00:52:41;8.70;99.90
4757;DHT22;2392;52.578;13.426;2023-03-26T00:55:08;8.70;99.90
4757;DHT22;2392;52.578;13.426;2023-03-26T00:57:37;8.60;99.90
4757;DHT22;2392;52.578;13.426;2023-03-26T01:00:10;8.60;99.90
4757;DHT22;2392;52.578;13.426;2023-03-26T01:02:39;8.60;99.90
4757;DHT22;2392;52.578;13.426;2023-03-26T01:05:37;8.60;99.90
4757;DHT22;2392;52.578;13.426;2023-03-26T01:08:15;8.60;99.90
4757;DHT22;2392;52.578;13.426;2023-03-26T01:10:43;8.60;99.90
4757;DHT22;2392;52.578;13.426;2023-03-26T01:13:17;8.50;99.90
4757;DHT22;2392;52.578;13.426;2023-03-26T01:15:45;8.50;99.90
4757;DHT22;2392;52.578;13.426;2023-03-26T01:18:17;8.50;99.90
4757;DHT22;2392;52.578;13.426;2023-03-26T01:20:47;8.50;99.90
4757;DHT22;2392;52.578;13.426;2023-03-26T01:23:20;8.60;99.90
4757;DHT22;2392;52.578;13.426;2023-03-26T01:25:53;8.60;99.90
4757;DHT22;2392;52.578;13.426;2023-03-26T01:28:23;8.60;99.90
4757;DHT22;2392;52.578;13.426;2023-03-26T01:30:57;8.60;99.90
4757;DHT22;2392;52.578;13.426;2023-03-26T01:33:32;8.50;99.90
4757;DHT22;2392;52.578;13.426;2023-03-26T01:36:05;8.50;99.90
4757;DHT22;2392;52.578;13.426;2023-03-26T01:38:41;8.40;99.90
4757;DHT22;2392;52.578;13.426;2023-03-26T01:41:15;8.40;99.90
4757;DHT22;2392;52.578;13.426;2023-03-26T01:43:46;8.40;99.90
4757;DHT22;2392;52.578;13.426;2023-03-26T01:46:16;8.40;99.90
4757;DHT22;2392;52.578;13.426;2023-03-26T01:48:46;8.40;99.90
4757;DHT22;2392;52.578;13.426;2023-03-26T01:51:24;8.30;99.90
4757;DHT22;2392;52.578;13.426;2023-03-26T01:53:52;8.30;99.90
4757;DHT22;2392;52.578;13.426;2023-03-26T01:56:25;8.30;99.90
4757;DHT22;2392;52.578;13.426;2023-03-26T01:59:07;8.30;99.90
4757;DHT22;2392;52.578;13.426;2023-03-26T02:01:40;8.30;99.90
4757;DHT22;2392;52.578;13.426;2023-03-26T02:04:15;8.30;99.90
4757;DHT22;2392;52.578;13.426;2023-03-26T02:06:48;8.30;99.90
4757;DHT22;2392;52.578;13.426;2023-03-26T02:09:19;8.30;99.90
4757;DHT22;2392;52.578;13.426;2023-03-26T02:11:50;8.30;99.90
4757;DHT22;2392;52.578;13.426;2023-03-26T02:14:17;8.30;99.90
4757;DHT22;2392;52.578;13.426;2023-03-26T02:16:44;8.30;99.90
4757;DHT22;2392;52.578;13.426;2023-03-26T02:19:12;8.30;99.90
4757;DHT22;2392;52.578;13.426;2023-03-26T02:21:46;8.30;99.90
4757;DHT22;2392;52.578;13.426;2023-03-26T02:24:16;8.30;99.90
4757;DHT22;2392;52.578;13.426;2023-03-26T02:26:44;8.30;99.90
4757;DHT22;2392;52.578;13.426;2023-03-26T02:29:13;8.20;99.90
4757;DHT22;2392;52.578;13.426;2023-03-26T02:31:44;8.10;99.90
4757;DHT22;2392;52.578;13.426;2023-03-26T02:34:11;8.10;99.90
4757;DHT22;2392;52.578;13.426;2023-03-26T02:36:45;8.00;99.90
4757;DHT22;2392;52.578;13.426;2023-03-26T02:39:11;8.00;99.90
4757;DHT22;2392;52.578;13.426;2023-03-26T02:41:40;8.00;99.90
4757;DHT22;2392;52.578;13.426;2023-03-26T02:44:10;7.90;99.90
4757;DHT22;2392;52.578;13.426;2023-03-26T02:46:57;7.90;99.90
4757;DHT22;2392;52.578;13.426;2023-03-26T02:49:42;7.80;99.90
4757;DHT22;2392;52.578;13.426;2023-03-26T02:52:14;7.80;99.90
4757;DHT22;2392;52.578;13.426;2023-03-26T02:54:45;7.80;99.90
4757;DHT22;2392;52.578;13.426;2023-03-26T02:57:23;7.80;99.90
4757;DHT22;2392;52.578;13.426;2023-03-26T03:00:02;7.90;99.90
4757;DHT22;2392;52.578;13.426;2023-03-26T03:02:46;7.90;99.90
4757;DHT22;2392;52.578;13.426;2023-03-26T03:05:29;7.90;99.90
4757;DHT22;2392;52.578;13.426;2023-03-26T03:08:15;7.90;99.90
4757;DHT22;2392;52.578;13.426;2023-03-26T03:11:07;7.90;99.90
4757;DHT22;2392;52.578;13.426;2023-03-26T03:13:41;7.90;99.90
4757;DHT22;2392;52.578;13.426;2023-03-26T03:16:08;8.00;99.90
4757;DHT22;2392;52.578;13.426;2023-03-26T03:18:37;8.00;99.90
4757;DHT22;2392;52.578;13.426;2023-03-26T03:21:04;8.00;99.90
4757;DHT22;2392;52.578;13.426;2023-03-26T03:23:31;8.00;99.90
4757;DHT22;2392;52.578;13.426;2023-03-26T03:26:11;8.00;99.90
4757;DHT22;2392;52.578;13.426;2023-03-26T03:28:40;8.10;99.90
4757;DHT22;2392;52.578;13.426;2023-03-26T03:31:07;8.10;99.90
4757;DHT22;2392;52.578;13.426;2023-03-26T03:33:37;8.10;99.90
4757;DHT22;2392;52.578;13.426;2023-03-26T03:36:07;8.00;99.90
4757;DHT22;2392;52.578;13.426;2023-03-26T03:38:36;8.10;99.90
4757;DHT22;2392;52.578;13.426;2023-03-26T03:41:04;8.10;99.90
4757;DHT22;2392;52.578;13.426;2023-03-26T03:43:34;8.10;99.90
4757;DHT22;2392;52.578;13.426;2023-03-26T03:46:14;8.10;99.90
4757;DHT22;2392;52.578;13.426;2023-03-26T03:48:45;8.10;99.90
4757;DHT22;2392;52.578;13.426;2023-03-26T03:51:17;8.10;99.90
4757;DHT22;2392;52.578;13.426;2023-03-26T03:53:51;8.10;99.90
4757;DHT22;2392;52.578;13.426;2023-03-26T03:56:32;8.10;99.90
4757;DHT22;2392;52.578;13.426;2023-03-26T03:59:32;8.10;99.90
4757;DHT22;2392;52.578;13.426;2023-03-26T04:02:03;8.10;99.90
4757;DHT22;2392;52.578;13.426;2023-03-26T04:04:37;8.10;99.90
4757;DHT22;2392;52.578;13.426;2023-03-26T04:07:08;8.10;99.90
4757;DHT22;2392;52.578;13.426;2023-03-26T04:09:54;8.10;99.90
4757;DHT22;2392;52.578;13.426;2023-03-26T04:12:25;8.10;99.90
4757;DHT22;2392;52.578;13.426;2023-03-26T04:14:57;8.10;99.90
4757;DHT22;2392;52.578;13.426;2023-03-26T04:17:24;8.20;99.90
4757;DHT22;2392;52.578;13.426;2023-03-26T04:19:55;8.10;99.90
4757;DHT22;2392;52.578;13.426;2023-03-26T04:22:28;8.10;99.90
4757;DHT22;2392;52.578;13.426;2023-03-26T04:25:00;8.00;99.90
4757;DHT22;2392;52.578;13.426;2023-03-26T04:27:43;8.10;99.90
4757;DHT22;2392;52.578;13.426;2023-03-26T04:30:19;8.00;99.90
4757;DHT22;2392;52.578;13.426;2023-03-26T04:33:03;8.00;99.90
4757;DHT22;2392;52.578;13.426;2023-03-26T04:35:35;8.00;99.90
4757;DHT22;2392;52.578;13.426;2023-03-26T04:38:09;8.00;99.90
4757;DHT22;2392;52.578;13.426;2023-03-26T04:40:40;8.00;99.90
4757;DHT22;2392;52.578;13.426;2023-03-26T04:43:22;8.00;99.90
4757;DHT22;2392;52.578;13.426;2023-03-26T04:46:01;8.00;99.90
4757;DHT22;2392;52.578;13.426;2023-03-26T04:48:32;8.00;99.90
4757;DHT22;2392;52.578;13.426;2023-03-26T04:51:01;8.00;99.90
4757;DHT22;2392;52.578;13.426;2023-03-26T04:53:28;8.00;99.90
4757;DHT22;2392;52.578;13.426;2023-03-26T04:56:36;8.00;99.90
4757;DHT22;2392;52.578;13.426;2023-03-26T04:59:07;8.00;99.90
4757;DHT22;2392;52.578;13.426;2023-03-26T05:01:39;8.00;99.90
4757;DHT22;2392;52.578;13.426;2023-03-26T05:04:09;8.00;99.90
4757;DHT22;2392;52.578;13.426;2023-03-26T05:06:37;8.00;99.90
4757;DHT22;2392;52.578;13.426;2023-03-26T05:09:12;8.10;99.90
4757;DHT22;2392;52.578;13.426;2023-03-26T05:11:59;8.10;99.90
4757;DHT22;2392;52.578;13.426;2023-03-26T05:14:26;8.10;99.90
4757;DHT22;2392;52.578;13.426;2023-03-26T05:16:53;8.10;99.90
4757;DHT22;2392;52.578;13.426;2023-03-26T05:19:20;8.10;99.90
4757;DHT22;2392;52.578;13.426;2023-03-26T05:21:49;8.10;99.90
4757;DHT22;2392;52.578;13.426;2023-03-26T05:24:16;8.10;99.90
4757;DHT22;2392;52.578;13.426;2023-03-26T05:26:44;8.10;99.90
4757;DHT22;2392;52.578;13.426;2023-03-26T05:29:14;8.00;99.90
4757;DHT22;2392;52.578;13.426;2023-03-26T05:31:46;8.10;99.90
4757;DHT22;2392;52.578;13.426;2023-03-26T05:34:13;8.00;99.90
4757;DHT22;2392;52.578;13.426;2023-03-26T05:36:40;8.10;99.90
4757;DHT22;2392;52.578;13.426;2023-03-26T05:39:38;8.10;99.90
4757;DHT22;2392;52.578;13.426;2023-03-26T05:42:35;8.10;99.90
4757;DHT22;2392;52.578;13.426;2023-03-26T05:45:21;8.10;99.90
4757;DHT22;2392;52.578;13.426;2023-03-26T05:47:48;8.10;99.90
4757;DHT22;2392;52.578;13.426;2023-03-26T05:50:16;8.10;99.90
4757;DHT22;2392;52.578;13.426;2023-03-26T05:52:43;8.10;99.90
4757;DHT22;2392;52.578;13.426;2023-03-26T05:55:44;8.10;99.90
4757;DHT22;2392;52.578;13.426;2023-03-26T05:58:34;8.10;99.90
4757;DHT22;2392;52.578;13.426;2023-03-26T06:01:40;8.20;99.90
4757;DHT22;2392;52.578;13.426;2023-03-26T06:04:27;8.10;99.90
4757;DHT22;2392;52.578;13.426;2023-03-26T06:07:14;8.10;99.90
4757;DHT22;2392;52.578;13.426;2023-03-26T06:09:44;8.00;99.90
4757;DHT22;2392;52.578;13.426;2023-03-26T06:12:13;7.90;99.90
4757;DHT22;2392;52.578;13.426;2023-03-26T06:14:40;7.80;99.90
4757;DHT22;2392;52.578;13.426;2023-03-26T06:17:16;7.70;99.90
4757;DHT22;2392;52.578;13.426;2023-03-26T06:20:10;7.60;99.90
4757;DHT22;2392;52.578;13.426;2023-03-26T06:22:40;7.60;99.90
4757;DHT22;2392;52.578;13.426;2023-03-26T06:25:34;7.50;99.90
4757;DHT22;2392;52.578;13.426;2023-03-26T06:28:29;7.40;99.90
4757;DHT22;2392;52.578;13.426;2023-03-26T06:31:04;7.50;99.90
4757;DHT22;2392;52.578;13.426;2023-03-26T06:33:35;7.40;99.90
4757;DHT22;2392;52.578;13.426;2023-03-26T06:36:02;7.40;99.90
4757;DHT22;2392;52.578;13.426;2023-03-26T06:38:30;7.40;99.90
4757;DHT22;2392;52.578;13.426;2023-03-26T06:41:01;7.50;99.90
4757;DHT22;2392;52.578;13.426;2023-03-26T06:43:58;7.50;99.90
4757;DHT22;2392;52.578;13.426;2023-03-26T06:46:51;7.60;99.90
4757;DHT22;2392;52.578;13.426;2023-03-26T06:49:38;7.70;99.90
4757;DHT22;2392;52.578;13.426;2023-03-26T06:52:28;7.70;99.90
4757;DHT22;2392;52.578;13.426;2023-03-26T06:55:21;7.80;99.90
4757;DHT22;2392;52.578;13.426;2023-03-26T06:58:08;7.90;99.90
4757;DHT22;2392;52.578;13.426;2023-03-26T07:00:56;8.00;99.90
4757;DHT22;2392;52.578;13.426;2023-03-26T07:03:41;8.00;99.90
4757;DHT22;2392;52.578;13.426;2023-03-26T07:06:27;8.10;99.90
4757;DHT22;2392;52.578;13.426;2023-03-26T07:09:14;8.10;99.90
4757;DHT22;2392;52.578;13.426;2023-03-26T07:11:43;8.20;99.90
4757;DHT22;2392;52.578;13.426;2023-03-26T07:14:16;8.20;99.90
4757;DHT22;2392;52.578;13.426;2023-03-26T07:16:53;8.30;99.90
4757;DHT22;2392;52.578;13.426;2023-03-26T07:19:31;8.40;99.90
4757;DHT22;2392;52.578;13.426;2023-03-26T07:21:59;8.40;99.90
4757;DHT22;2392;52.578;13.426;2023-03-26T07:24:47;8.50;99.90
4757;DHT22;2392;52.578;13.426;2023-03-26T07:27:38;8.60;99.90
4757;DHT22;2392;52.578;13.426;2023-03-26T07:30:13;8.70;99.90
4757;DHT22;2392;52.578;13.426;2023-03-26T07:33:04;8.80;99.90
4757;DHT22;2392;52.578;13.426;2023-03-26T07:35:45;8.80;99.90
4757;DHT22;2392;52.578;13.426;2023-03-26T07:38:42;8.90;99.90
4757;DHT22;2392;52.578;13.426;2023-03-26T07:41:48;9.00;99.90
4757;DHT22;2392;52.578;13.426;2023-03-26T07:44:43;9.00;99.90
4757;DHT22;2392;52.578;13.426;2023-03-26T07:47:21;9.10;99.90
4757;DHT22;2392;52.578;13.426;2023-03-26T07:50:24;9.20;99.90
4757;DHT22;2392;52.578;13.426;2023-03-26T07:53:10;9.20;99.90
4757;DHT22;2392;52.578;13.426;2023-03-26T07:55:58;9.20;99.90
4757;DHT22;2392;52.578;13.426;2023-03-26T07:58:52;9.20;99.90
4757;DHT22;2392;52.578;13.426;2023-03-26T08:01:52;9.10;99.90
4757;DHT22;2392;52.578;13.426;2023-03-26T08:04:54;9.10;99.90
4757;DHT22;2392;52.578;13.426;2023-03-26T08:07:51;9.10;99.90
4757;DHT22;2392;52.578;13.426;2023-03-26T08:10:29;9.30;99.90
4757;DHT22;2392;52.578;13.426;2023-03-26T08:13:14;9.20;99.90
4757;DHT22;2392;52.578;13.426;2023-03-26T08:15:48;9.20;99.90
4757;DHT22;2392;52.578;13.426;2023-03-26T08:18:25;9.20;99.90
4757;DHT22;2392;52.578;13.426;2023-03-26T08:20:59;9.10;99.90
4757;DHT22;2392;52.578;13.426;2023-03-26T08:23:34;9.10;99.90
4757;DHT22;2392;52.578;13.426;2023-03-26T08:26:08;9.10;99.90
4757;DHT22;2392;52.578;13.426;2023-03-26T08:28:53;9.10;99.90
4757;DHT22;2392;52.578;13.426;2023-03-26T08:31:32;9.20;99.90
4757;DHT22;2392;52.578;13.426;2023-03-26T08:33:59;9.30;99.90
4757;DHT22;2392;52.578;13.426;2023-03-26T08:36:26;9.40;99.90
4757;DHT22;2392;52.578;13.426;2023-03-26T08:38:55;9.60;99.90
4757;DHT22;2392;52.578;13.426;2023-03-26T08:44:51;9.60;99.90
4757;DHT22;2392;52.578;13.426;2023-03-26T08:47:51;9.70;99.90
4757;DHT22;2392;52.578;13.426;2023-03-26T08:53:55;9.70;99.90
4757;DHT22;2392;52.578;13.426;2023-03-26T08:56:28;9.70;99.90
4757;DHT22;2392;52.578;13.426;2023-03-26T08:59:43;9.60;99.90
4757;DHT22;2392;52.578;13.426;2023-03-26T09:02:30;9.50;99.90
4757;DHT22;2392;52.578;13.426;2023-03-26T09:18:10;8.90;99.90
4757;DHT22;2392;52.578;13.426;2023-03-26T09:21:10;8.80;99.90
4757;DHT22;2392;52.578;13.426;2023-03-26T09:27:07;8.70;99.90
4757;DHT22;2392;52.578;13.426;2023-03-26T09:29:56;8.60;99.90
4757;DHT22;2392;52.578;13.426;2023-03-26T09:35:53;8.50;99.90
4757;DHT22;2392;52.578;13.426;2023-03-26T09:38:33;8.60;99.90
4757;DHT22;2392;52.578;13.426;2023-03-26T09:41:12;8.60;99.90
4757;DHT22;2392;52.578;13.426;2023-03-26T09:44:15;8.70;99.90
4757;DHT22;2392;52.578;13.426;2023-03-26T09:46:59;8.60;99.90
4757;DHT22;2392;52.578;13.426;2023-03-26T09:49:41;8.60;99.90
4757;DHT22;2392;52.578;13.426;2023-03-26T09:52:25;8.60;99.90
4757;DHT22;2392;52.578;13.426;2023-03-26T09:55:22;8.50;99.90
4757;DHT22;2392;52.578;13.426;2023-03-26T09:58:13;8.50;99.90
4757;DHT22;2392;52.578;13.426;2023-03-26T10:00:52;8.50;99.90
4757;DHT22;2392;52.578;13.426;2023-03-26T10:03:40;8.50;99.90
4757;DHT22;2392;52.578;13.426;2023-03-26T10:06:32;8.50;99.90
4757;DHT22;2392;52.578;13.426;2023-03-26T10:09:28;8.50;99.90
4757;DHT22;2392;52.578;13.426;2023-03-26T10:12:14;8.50;99.90
4757;DHT22;2392;52.578;13.426;2023-03-26T10:14:51;8.50;99.90
4757;DHT22;2392;52.578;13.426;2023-03-26T10:17:32;8.50;99.90
4757;DHT22;2392;52.578;13.426;2023-03-26T10:20:25;8.60;99.90
4757;DHT22;2392;52.578;13.426;2023-03-26T10:25:59;8.80;99.90
4757;DHT22;2392;52.578;13.426;2023-03-26T10:29:02;8.90;99.90
4757;DHT22;2392;52.578;13.426;2023-03-26T10:31:46;9.10;99.90
4757;DHT22;2392;52.578;13.426;2023-03-26T10:35:05;9.20;99.90
4757;DHT22;2392;52.578;13.426;2023-03-26T10:37:43;9.40;99.90
4757;DHT22;2392;52.578;13.426;2023-03-26T10:40:21;9.50;99.90
4757;DHT22;2392;52.578;13.426;2023-03-26T10:43:07;9.50;99.90
4757;DHT22;2392;52.578;13.426;2023-03-26T10:45:55;9.40;99.90
4757;DHT22;2392;52.578;13.426;2023-03-26T10:48:56;9.40;99.90
4757;DHT22;2392;52.578;13.426;2023-03-26T10:51:51;9.30;99.90
4757;DHT22;2392;52.578;13.426;2023-03-26T10:54:35;9.20;99.90
4757;DHT22;2392;52.578;13.426;2023-03-26T10:57:06;9.10;99.90
4757;DHT22;2392;52.578;13.426;2023-03-26T10:59:37;9.10;99.90
4757;DHT22;2392;52.578;13.426;2023-03-26T11:02:27;9.20;99.90
4757;DHT22;2392;52.578;13.426;2023-03-26T11:05:18;9.20;99.90
4757;DHT22;2392;52.578;13.426;2023-03-26T11:07:53;9.30;99.90
4757;DHT22;2392;52.578;13.426;2023-03-26T11:10:29;9.60;99.90
4757;DHT22;2392;52.578;13.426;2023-03-26T11:13:06;9.80;99.90
4757;DHT22;2392;52.578;13.426;2023-03-26T11:15:42;10.10;99.90
4757;DHT22;2392;52.578;13.426;2023-03-26T11:18:17;10.30;99.90
4757;DHT22;2392;52.578;13.426;2023-03-26T11:20:48;10.50;99.90
4757;DHT22;2392;52.578;13.426;2023-03-26T11:23:29;11.00;99.90
4757;DHT22;2392;52.578;13.426;2023-03-26T11:26:10;11.30;99.90
4757;DHT22;2392;52.578;13.426;2023-03-26T11:29:00;11.60;99.90
4757;DHT22;2392;52.578;13.426;2023-03-26T11:31:44;12.50;99.90
4757;DHT22;2392;52.578;13.426;2023-03-26T11:34:16;13.60;99.90
4757;DHT22;2392;52.578;13.426;2023-03-26T11:36:47;14.90;99.90
4757;DHT22;2392;52.578;13.426;2023-03-26T11:39:22;15.40;99.90
4757;DHT22;2392;52.578;13.426;2023-03-26T11:41:54;15.90;99.90
4757;DHT22;2392;52.578;13.426;2023-03-26T11:44:32;15.60;99.90
4757;DHT22;2392;52.578;13.426;2023-03-26T11:47:04;16.10;99.90
4757;DHT22;2392;52.578;13.426;2023-03-26T11:49:33;16.70;99.90
4757;DHT22;2392;52.578;13.426;2023-03-26T11:52:00;16.80;99.90
4757;DHT22;2392;52.578;13.426;2023-03-26T11:54:29;16.90;99.90
4757;DHT22;2392;52.578;13.426;2023-03-26T11:57:01;16.40;99.90
4757;DHT22;2392;52.578;13.426;2023-03-26T11:59:33;15.50;99.90
4757;DHT22;2392;52.578;13.426;2023-03-26T12:02:16;14.90;99.90
4757;DHT22;2392;52.578;13.426;2023-03-26T12:04:44;14.50;99.90
4757;DHT22;2392;52.578;13.426;2023-03-26T12:07:16;14.30;99.90
4757;DHT22;2392;52.578;13.426;2023-03-26T12:09:50;14.40;99.90
4757;DHT22;2392;52.578;13.426;2023-03-26T12:12:17;15.00;99.90
4757;DHT22;2392;52.578;13.426;2023-03-26T12:14:45;15.60;99.90
4757;DHT22;2392;52.578;13.426;2023-03-26T12:17:22;15.80;99.90
4757;DHT22;2392;52.578;13.426;2023-03-26T12:19:50;15.30;99.90
4757;DHT22;2392;52.578;13.426;2023-03-26T12:22:28;15.40;99.90
4757;DHT22;2392;52.578;13.426;2023-03-26T12:25:16;14.90;99.90
4757;DHT22;2392;52.578;13.426;2023-03-26T12:27:44;14.70;99.90
4757;DHT22;2392;52.578;13.426;2023-03-26T12:30:19;14.60;99.90
4757;DHT22;2392;52.578;13.426;2023-03-26T12:32:48;14.70;99.90
4757;DHT22;2392;52.578;13.426;2023-03-26T12:35:18;15.20;99.90
4757;DHT22;2392;52.578;13.426;2023-03-26T12:37:46;15.70;99.90
4757;DHT22;2392;52.578;13.426;2023-03-26T12:40:30;16.10;99.90
4757;DHT22;2392;52.578;13.426;2023-03-26T12:43:00;16.60;99.90
4757;DHT22;2392;52.578;13.426;2023-03-26T12:45:30;16.80;99.90
4757;DHT22;2392;52.578;13.426;2023-03-26T12:47:58;16.70;99.90
4757;DHT22;2392;52.578;13.426;2023-03-26T12:50:37;16.80;99.90
4757;DHT22;2392;52.578;13.426;2023-03-26T12:53:40;17.10;99.90
4757;DHT22;2392;52.578;13.426;2023-03-26T12:56:17;17.20;99.90
4757;DHT22;2392;52.578;13.426;2023-03-26T12:59:03;17.40;99.90
4757;DHT22;2392;52.578;13.426;2023-03-26T13:01:41;17.10;99.90
4757;DHT22;2392;52.578;13.426;2023-03-26T13:04:31;16.60;99.90
4757;DHT22;2392;52.578;13.426;2023-03-26T13:07:08;16.50;99.90
4757;DHT22;2392;52.578;13.426;2023-03-26T13:10:27;16.10;99.90
4757;DHT22;2392;52.578;13.426;2023-03-26T13:13:21;15.60;99.90
4757;DHT22;2392;52.578;13.426;2023-03-26T13:15:52;15.20;99.90
4757;DHT22;2392;52.578;13.426;2023-03-26T13:18:29;14.90;99.90
4757;DHT22;2392;52.578;13.426;2023-03-26T13:21:06;14.70;99.90
4757;DHT22;2392;52.578;13.426;2023-03-26T13:23:43;14.60;99.90
4757;DHT22;2392;52.578;13.426;2023-03-26T13:26:33;14.40;99.90
4757;DHT22;2392;52.578;13.426;2023-03-26T13:29:09;14.50;99.90
4757;DHT22;2392;52.578;13.426;2023-03-26T13:31:46;14.80;99.90
4757;DHT22;2392;52.578;13.426;2023-03-26T13:34:23;14.90;99.90
4757;DHT22;2392;52.578;13.426;2023-03-26T13:37:01;14.90;99.90
4757;DHT22;2392;52.578;13.426;2023-03-26T13:39:38;14.70;99.90
4757;DHT22;2392;52.578;13.426;2023-03-26T13:42:22;14.60;99.90
4757;DHT22;2392;52.578;13.426;2023-03-26T13:44:59;14.40;99.90
4757;DHT22;2392;52.578;13.426;2023-03-26T13:47:31;14.20;99.90
4757;DHT22;2392;52.578;13.426;2023-03-26T13:50:04;13.90;99.90
4757;DHT22;2392;52.578;13.426;2023-03-26T13:52:36;13.60;99.90
4757;DHT22;2392;52.578;13.426;2023-03-26T13:55:17;13.40;99.90
4757;DHT22;2392;52.578;13.426;2023-03-26T13:57:49;13.20;99.90
4757;DHT22;2392;52.578;13.426;2023-03-26T14:00:22;13.10;99.90
4757;DHT22;2392;52.578;13.426;2023-03-26T14:02:55;13.00;99.90
4757;DHT22;2392;52.578;13.426;2023-03-26T14:05:28;12.90;99.90
4757;DHT22;2392;52.578;13.426;2023-03-26T14:08:01;12.90;99.90
4757;DHT22;2392;52.578;13.426;2023-03-26T14:10:33;13.00;99.90
4757;DHT22;2392;52.578;13.426;2023-03-26T14:13:04;13.20;99.90
4757;DHT22;2392;52.578;13.426;2023-03-26T14:15:39;13.20;99.90
4757;DHT22;2392;52.578;13.426;2023-03-26T14:18:19;13.20;99.90
4757;DHT22;2392;52.578;13.426;2023-03-26T14:21:08;13.20;99.90
4757;DHT22;2392;52.578;13.426;2023-03-26T14:23:53;13.10;99.90
4757;DHT22;2392;52.578;13.426;2023-03-26T14:26:36;13.00;99.90
4757;DHT22;2392;52.578;13.426;2023-03-26T14:29:29;12.90;99.90
4757;DHT22;2392;52.578;13.426;2023-03-26T14:32:07;12.80;99.90
4757;DHT22;2392;52.578;13.426;2023-03-26T14:34:46;12.70;99.90
4757;DHT22;2392;52.578;13.426;2023-03-26T14:37:28;12.60;99.90
4757;DHT22;2392;52.578;13.426;2023-03-26T14:40:26;12.60;99.90
4757;DHT22;2392;52.578;13.426;2023-03-26T14:43:02;12.60;99.90
4757;DHT22;2392;52.578;13.426;2023-03-26T14:45:50;12.60;99.90
4757;DHT22;2392;52.578;13.426;2023-03-26T14:51:36;12.70;99.90
4757;DHT22;2392;52.578;13.426;2023-03-26T14:54:09;12.90;99.90
4757;DHT22;2392;52.578;13.426;2023-03-26T14:56:47;13.00;99.90
4757;DHT22;2392;52.578;13.426;2023-03-26T15:03:01;13.70;99.90
4757;DHT22;2392;52.578;13.426;2023-03-26T15:11:56;14.10;99.90
4757;DHT22;2392;52.578;13.426;2023-03-26T15:14:53;14.00;99.90
4757;DHT22;2392;52.578;13.426;2023-03-26T15:17:49;13.90;99.90
4757;DHT22;2392;52.578;13.426;2023-03-26T15:21:03;13.60;99.90
4757;DHT22;2392;52.578;13.426;2023-03-26T15:24:16;13.40;99.90
4757;DHT22;2392;52.578;13.426;2023-03-26T15:30:25;13.00;99.90
4757;DHT22;2392;52.578;13.426;2023-03-26T15:33:32;12.80;99.90
4757;DHT22;2392;52.578;13.426;2023-03-26T15:36:26;12.60;99.90
4757;DHT22;2392;52.578;13.426;2023-03-26T15:42:02;12.40;99.90
4757;DHT22;2392;52.578;13.426;2023-03-26T15:44:52;12.20;99.90
4757;DHT22;2392;52.578;13.426;2023-03-26T15:47:45;12.10;99.90
4757;DHT22;2392;52.578;13.426;2023-03-26T15:50:25;12.10;99.90
4757;DHT22;2392;52.578;13.426;2023-03-26T15:53:00;12.10;99.90
4757;DHT22;2392;52.578;13.426;2023-03-26T15:55:33;12.10;99.90
4757;DHT22;2392;52.578;13.426;2023-03-26T15:58:11;12.10;99.90
4757;DHT22;2392;52.578;13.426;2023-03-26T16:00:50;12.00;99.90
4757;DHT22;2392;52.578;13.426;2023-03-26T16:03:26;12.00;99.90
4757;DHT22;2392;52.578;13.426;2023-03-26T16:11:55;11.80;99.90
4757;DHT22;2392;52.578;13.426;2023-03-26T16:14:40;11.70;99.90
4757;DHT22;2392;52.578;13.426;2023-03-26T16:17:11;11.60;99.90
4757;DHT22;2392;52.578;13.426;2023-03-26T16:19:52;11.60;99.90
4757;DHT22;2392;52.578;13.426;2023-03-26T16:22:45;11.50;99.90
4757;DHT22;2392;52.578;13.426;2023-03-26T16:25:24;11.40;99.90
4757;DHT22;2392;52.578;13.426;2023-03-26T16:28:20;11.40;99.90
4757;DHT22;2392;52.578;13.426;2023-03-26T16:31:19;11.30;99.90
4757;DHT22;2392;52.578;13.426;2023-03-26T16:33:56;11.30;99.90
4757;DHT22;2392;52.578;13.426;2023-03-26T16:36:31;11.20;99.90
4757;DHT22;2392;52.578;13.426;2023-03-26T16:39:17;11.10;99.90
4757;DHT22;2392;52.578;13.426;2023-03-26T16:42:00;11.10;99.90
4757;DHT22;2392;52.578;13.426;2023-03-26T16:44:37;11.00;99.90
4757;DHT22;2392;52.578;13.426;2023-03-26T16:47:17;11.00;99.90
4757;DHT22;2392;52.578;13.426;2023-03-26T16:49:53;10.90;99.90
4757;DHT22;2392;52.578;13.426;2023-03-26T16:52:34;10.80;99.90
4757;DHT22;2392;52.578;13.426;2023-03-26T16:55:17;10.70;99.90
4757;DHT22;2392;52.578;13.426;2023-03-26T16:57:52;10.70;99.90
4757;DHT22;2392;52.578;13.426;2023-03-26T17:00:42;10.60;99.90
4757;DHT22;2392;52.578;13.426;2023-03-26T17:03:31;10.50;99.90
4757;DHT22;2392;52.578;13.426;2023-03-26T17:06:18;10.50;99.90
4757;DHT22;2392;52.578;13.426;2023-03-26T17:08:55;10.40;99.90
4757;DHT22;2392;52.578;13.426;2023-03-26T17:11:28;10.40;99.90
4757;DHT22;2392;52.578;13.426;2023-03-26T17:14:15;10.30;99.90
4757;DHT22;2392;52.578;13.426;2023-03-26T17:16:48;10.30;99.90
4757;DHT22;2392;52.578;13.426;2023-03-26T17:19:26;10.20;99.90
4757;DHT22;2392;52.578;13.426;2023-03-26T17:22:02;10.20;99.90
4757;DHT22;2392;52.578;13.426;2023-03-26T17:24:38;10.10;99.90
4757;DHT22;2392;52.578;13.426;2023-03-26T17:27:39;10.10;99.90
4757;DHT22;2392;52.578;13.426;2023-03-26T17:30:30;10.00;99.90
4757;DHT22;2392;52.578;13.426;2023-03-26T17:33:09;10.00;99.90
4757;DHT22;2392;52.578;13.426;2023-03-26T17:35:41;9.90;99.90
4757;DHT22;2392;52.578;13.426;2023-03-26T17:38:53;9.80;99.90
4757;DHT22;2392;52.578;13.426;2023-03-26T17:41:51;9.80;99.90
4757;DHT22;2392;52.578;13.426;2023-03-26T17:44:43;9.70;99.90
4757;DHT22;2392;52.578;13.426;2023-03-26T17:47:19;9.70;99.90
4757;DHT22;2392;52.578;13.426;2023-03-26T17:49:52;9.60;99.90
4757;DHT22;2392;52.578;13.426;2023-03-26T17:52:24;9.60;99.90
4757;DHT22;2392;52.578;13.426;2023-03-26T17:54:55;9.50;99.90
4757;DHT22;2392;52.578;13.426;2023-03-26T17:57:26;9.50;99.90
4757;DHT22;2392;52.578;13.426;2023-03-26T17:59:56;9.50;99.90
4757;DHT22;2392;52.578;13.426;2023-03-26T18:02:32;9.40;99.90
4757;DHT22;2392;52.578;13.426;2023-03-26T18:05:00;9.40;99.90